createdAt,value
2023-01-19T00:01:35.706Z,39.33
2023-01-19T00:04:02.636Z,40.00
2023-01-19T00:06:29.772Z,39.64
2023-01-19T00:08:56.895Z,39.34
2023-01-19T00:11:24.020Z,39.96
2023-01-19T00:13:51.971Z,39.94
2023-01-19T00:16:23.129Z,39.94
2023-01-19T00:18:53.557Z,39.80
2023-01-19T00:21:21.990Z,39.79
2023-01-19T00:23:51.333Z,39.90
2023-01-19T00:26:20.241Z,39.96
2023-01-19T00:28:49.783Z,39.74
2023-01-19T00:31:17.249Z,40.00
2023-01-19T00:33:44.396Z,40.13
2023-01-19T00:36:11.386Z,40.02
2023-01-19T00:38:40.800Z,39.60
2023-01-19T00:41:07.996Z,39.85
2023-01-19T00:43:35.196Z,39.78
2023-01-19T00:46:02.358Z,39.85
2023-01-19T00:48:29.692Z,39.95
2023-01-19T00:50:56.735Z,39.50
2023-01-19T00:53:23.937Z,39.54
2023-01-19T00:55:50.832Z,39.24
2023-01-19T00:58:17.882Z,39.56
2023-01-19T01:00:45.051Z,39.73
2023-01-19T01:03:12.270Z,39.75
2023-01-19T01:05:51.899Z,39.66
2023-01-19T01:08:19.165Z,39.41
2023-01-19T01:10:46.199Z,38.77
2023-01-19T01:13:20.499Z,39.05
2023-01-19T01:15:53.311Z,39.09
2023-01-19T01:18:21.003Z,39.29
2023-01-19T01:20:48.209Z,39.15
2023-01-19T01:23:15.386Z,38.56
2023-01-19T01:25:44.665Z,38.95
2023-01-19T01:28:11.545Z,38.90
2023-01-19T01:30:41.354Z,39.03
2023-01-19T01:33:08.382Z,39.03
2023-01-19T01:35:35.298Z,38.91
2023-01-19T01:38:04.888Z,39.02
2023-01-19T01:40:31.889Z,39.45
2023-01-19T01:42:59.081Z,39.01
2023-01-19T01:45:33.305Z,38.26
2023-01-19T01:48:27.446Z,38.38
2023-01-19T01:51:18.619Z,38.17
2023-01-19T01:53:48.040Z,38.42
2023-01-19T01:56:20.638Z,38.49
2023-01-19T01:58:48.757Z,38.15
2023-01-19T02:01:36.973Z,37.42
2023-01-19T02:04:03.952Z,37.40
2023-01-19T02:06:30.806Z,37.87
2023-01-19T02:09:21.228Z,37.60
2023-01-19T02:12:06.615Z,37.93
2023-01-19T02:14:37.541Z,37.91
2023-01-19T02:17:05.033Z,38.05
2023-01-19T02:19:39.957Z,37.87
2023-01-19T02:22:26.106Z,37.73
2023-01-19T02:24:54.098Z,38.05
2023-01-19T02:27:21.109Z,37.81
2023-01-19T02:29:48.185Z,37.98
2023-01-19T02:32:15.349Z,37.33
2023-01-19T02:34:42.360Z,37.66
2023-01-19T02:37:14.246Z,37.49
2023-01-19T02:39:58.663Z,37.76
2023-01-19T02:42:35.782Z,37.95
2023-01-19T02:45:07.160Z,37.38
2023-01-19T02:47:42.258Z,38.17
2023-01-19T02:50:52.408Z,37.60
2023-01-19T02:53:34.326Z,37.96
2023-01-19T02:56:19.392Z,38.50
2023-01-19T02:59:04.029Z,37.70
2023-01-19T03:02:13.903Z,37.85
2023-01-19T03:05:42.501Z,37.65
2023-01-19T03:08:22.404Z,37.65
2023-01-19T03:10:59.028Z,37.94
2023-01-19T03:13:46.145Z,37.52
2023-01-19T03:16:36.842Z,37.68
2023-01-19T03:19:12.776Z,37.67
2023-01-19T03:21:42.980Z,37.80
2023-01-19T03:24:11.716Z,37.76
2023-01-19T03:26:47.241Z,38.39
2023-01-19T03:29:15.338Z,38.56
2023-01-19T03:31:44.279Z,38.04
2023-01-19T03:34:13.946Z,38.05
2023-01-19T03:36:46.501Z,38.35
2023-01-19T03:39:16.456Z,38.00
2023-01-19T03:41:44.372Z,37.79
2023-01-19T03:44:12.213Z,37.91
2023-01-19T03:46:39.466Z,37.49
2023-01-19T03:49:07.805Z,37.89
2023-01-19T03:51:39.969Z,37.51
2023-01-19T03:54:10.488Z,37.04
2023-01-19T03:56:37.898Z,37.22
2023-01-19T03:59:06.075Z,36.77
2023-01-19T04:01:33.047Z,36.88
2023-01-19T04:03:59.936Z,36.38
2023-01-19T04:06:27.315Z,36.37
2023-01-19T04:08:55.005Z,36.70
2023-01-19T04:11:21.977Z,36.11
2023-01-19T04:13:48.827Z,36.01
2023-01-19T04:16:20.176Z,36.09
2023-01-19T04:18:47.394Z,35.80
2023-01-19T04:21:14.637Z,35.65
2023-01-19T04:23:41.531Z,35.71
2023-01-19T04:26:09.227Z,35.77
2023-01-19T04:28:37.302Z,35.87
2023-01-19T04:31:05.524Z,35.08
2023-01-19T04:33:33.232Z,35.02
2023-01-19T04:36:00.145Z,35.26
2023-01-19T04:38:27.635Z,35.22
2023-01-19T04:40:54.879Z,35.44
2023-01-19T04:43:22.875Z,34.76
2023-01-19T04:45:50.117Z,34.82
2023-01-19T04:48:18.665Z,35.13
2023-01-19T04:50:46.335Z,34.79
2023-01-19T04:53:14.069Z,34.68
2023-01-19T04:55:41.415Z,34.92
2023-01-19T04:58:08.469Z,34.84
2023-01-19T05:00:36.206Z,34.48
2023-01-19T05:03:03.826Z,35.21
2023-01-19T05:05:35.067Z,34.83
2023-01-19T05:08:02.448Z,35.16
2023-01-19T05:10:29.547Z,34.39
2023-01-19T05:12:59.330Z,34.43
2023-01-19T05:15:31.419Z,34.08
2023-01-19T05:17:58.945Z,34.52
2023-01-19T05:20:26.238Z,33.99
2023-01-19T05:22:56.370Z,34.13
2023-01-19T05:25:25.889Z,34.17
2023-01-19T05:27:52.900Z,34.15
2023-01-19T05:30:19.963Z,34.52
2023-01-19T05:32:47.296Z,34.12
2023-01-19T05:35:16.675Z,34.05
2023-01-19T05:37:45.251Z,34.35
2023-01-19T05:40:14.779Z,33.63
2023-01-19T05:42:41.982Z,34.00
2023-01-19T05:45:09.608Z,34.09
2023-01-19T05:47:36.699Z,33.67
2023-01-19T05:50:04.333Z,33.99
2023-01-19T05:52:33.443Z,34.06
2023-01-19T05:55:00.561Z,33.93
2023-01-19T05:57:27.685Z,33.82
2023-01-19T05:59:54.648Z,34.05
2023-01-19T06:02:28.657Z,34.18
2023-01-19T06:04:56.665Z,34.35
2023-01-19T06:07:28.859Z,34.75
2023-01-19T06:09:56.210Z,34.55
2023-01-19T06:12:26.439Z,33.46
2023-01-19T06:14:53.475Z,33.93
2023-01-19T06:17:20.686Z,33.14
2023-01-19T06:19:50.696Z,33.28
2023-01-19T06:22:17.827Z,33.69
2023-01-19T06:24:44.928Z,33.61
2023-01-19T06:27:12.006Z,33.30
2023-01-19T06:29:39.035Z,33.35
2023-01-19T06:32:06.525Z,33.24
2023-01-19T06:34:33.772Z,33.50
2023-01-19T06:37:00.726Z,33.23
2023-01-19T06:39:27.791Z,33.27
2023-01-19T06:41:54.726Z,33.06
2023-01-19T06:44:21.636Z,32.86
2023-01-19T06:46:51.161Z,32.26
2023-01-19T06:49:43.786Z,32.09
2023-01-19T06:52:13.670Z,31.60
2023-01-19T06:54:40.752Z,32.06
2023-01-19T06:57:07.771Z,31.90
2023-01-19T06:59:35.878Z,31.81
2023-01-19T07:02:27.902Z,32.07
2023-01-19T07:04:49.645Z,31.70
2023-01-19T07:07:16.823Z,31.43
2023-01-19T07:09:43.857Z,31.50
2023-01-19T07:12:18.925Z,30.72
2023-01-19T07:14:46.278Z,30.60
2023-01-19T07:17:16.277Z,30.75
2023-01-19T07:19:43.509Z,30.42
2023-01-19T07:22:29.234Z,30.02
2023-01-19T07:24:56.411Z,30.10
2023-01-19T07:27:27.714Z,30.28
2023-01-19T07:29:54.958Z,29.80
2023-01-19T07:32:22.050Z,29.77
2023-01-19T07:34:49.244Z,29.71
2023-01-19T07:37:16.267Z,29.67
2023-01-19T07:39:47.508Z,29.15
2023-01-19T07:42:23.929Z,28.87
2023-01-19T07:44:51.327Z,28.16
2023-01-19T07:47:21.560Z,27.58
2023-01-19T07:49:51.371Z,27.51
2023-01-19T07:52:18.511Z,27.30
2023-01-19T07:54:46.016Z,26.51
2023-01-19T07:57:13.335Z,25.81
2023-01-19T07:59:40.496Z,25.74
2023-01-19T08:02:10.098Z,24.96
2023-01-19T08:04:39.650Z,25.20
2023-01-19T08:07:10.275Z,24.85
2023-01-19T08:09:37.248Z,24.67
2023-01-19T08:12:06.759Z,24.67
2023-01-19T08:14:34.467Z,25.35
2023-01-19T08:17:02.585Z,26.17
2023-01-19T08:19:29.669Z,25.03
2023-01-19T08:22:02.488Z,24.67
2023-01-19T08:24:32.561Z,24.40
2023-01-19T08:27:03.133Z,23.87
2023-01-19T08:29:34.041Z,23.57
2023-01-19T08:32:03.142Z,23.08
2023-01-19T08:34:31.258Z,22.81
2023-01-19T08:37:02.183Z,23.24
2023-01-19T08:39:29.292Z,23.23
2023-01-19T08:41:56.512Z,23.77
2023-01-19T08:44:25.164Z,24.76
2023-01-19T08:46:52.308Z,24.95
2023-01-19T08:49:20.766Z,25.12
2023-01-19T08:51:50.102Z,24.88
2023-01-19T08:54:20.404Z,25.23
2023-01-19T08:56:47.686Z,24.78
2023-01-19T08:59:14.923Z,24.99
2023-01-19T09:01:44.574Z,25.34
2023-01-19T09:04:14.227Z,24.52
2023-01-19T09:06:41.531Z,23.61
2023-01-19T09:09:10.970Z,22.88
2023-01-19T09:11:38.237Z,22.67
2023-01-19T09:14:08.537Z,23.00
2023-01-19T09:16:39.817Z,23.18
2023-01-19T09:19:11.430Z,22.83
2023-01-19T09:21:40.564Z,22.58
2023-01-19T09:24:08.260Z,22.16
2023-01-19T09:26:36.763Z,22.80
2023-01-19T09:29:03.772Z,22.94
2023-01-19T09:31:30.992Z,23.32
2023-01-19T09:33:57.971Z,23.18
2023-01-19T09:36:25.055Z,23.68
2023-01-19T09:38:52.709Z,23.76
2023-01-19T09:41:26.223Z,23.52
2023-01-19T09:43:58.511Z,24.00
2023-01-19T09:46:43.867Z,24.18
2023-01-19T09:49:23.545Z,24.02
2023-01-19T09:51:54.169Z,23.54
2023-01-19T09:54:37.217Z,22.26
2023-01-19T09:57:06.845Z,22.60
2023-01-19T09:59:34.067Z,22.15
2023-01-19T10:02:21.721Z,22.75
2023-01-19T10:05:02.671Z,22.45
2023-01-19T10:07:39.463Z,22.46
2023-01-19T10:10:19.208Z,22.84
2023-01-19T10:13:06.874Z,23.69
2023-01-19T10:15:37.108Z,24.18
2023-01-19T10:18:17.240Z,24.76
2023-01-19T10:21:02.631Z,23.97
2023-01-19T10:24:06.553Z,23.86
2023-01-19T10:26:44.674Z,22.83
2023-01-19T10:29:36.643Z,22.98
2023-01-19T10:32:22.999Z,24.61
2023-01-19T10:34:51.216Z,25.16
2023-01-19T10:37:18.183Z,26.62
2023-01-19T10:39:54.271Z,27.33
2023-01-19T10:42:21.559Z,27.13
2023-01-19T10:44:50.155Z,28.17
2023-01-19T10:47:21.302Z,28.37
2023-01-19T10:49:48.811Z,28.85
2023-01-19T10:52:32.355Z,28.84
2023-01-19T10:55:01.078Z,29.97
2023-01-19T10:57:35.042Z,30.00
2023-01-19T11:00:02.289Z,32.79
2023-01-19T11:02:31.169Z,32.56
2023-01-19T11:05:23.719Z,32.06
2023-01-19T11:07:50.780Z,31.01
2023-01-19T11:10:17.911Z,30.63
2023-01-19T11:13:07.791Z,30.62
2023-01-19T11:15:35.779Z,30.43
2023-01-19T11:18:05.305Z,30.35
2023-01-19T11:20:49.986Z,29.79
2023-01-19T11:23:26.300Z,29.18
2023-01-19T11:25:57.824Z,29.42
2023-01-19T11:28:31.463Z,28.88
2023-01-19T11:31:03.781Z,28.76
2023-01-19T11:33:36.307Z,29.61
2023-01-19T11:36:13.849Z,30.05
2023-01-19T11:38:43.804Z,29.66
2023-01-19T11:41:23.050Z,29.19
2023-01-19T11:43:53.596Z,29.49
2023-01-19T11:46:23.875Z,28.52
2023-01-19T11:49:01.902Z,29.09
2023-01-19T11:51:52.715Z,29.29
2023-01-19T11:54:24.010Z,28.96
2023-01-19T11:56:52.358Z,29.72
2023-01-19T11:59:19.522Z,29.46
2023-01-19T12:01:50.569Z,29.58
2023-01-19T12:04:22.969Z,29.36
2023-01-19T12:06:54.647Z,29.53
2023-01-19T12:09:35.265Z,28.66
2023-01-19T12:12:08.089Z,29.08
2023-01-19T12:14:40.510Z,29.13
2023-01-19T12:17:11.467Z,29.73
2023-01-19T12:19:54.595Z,29.30
2023-01-19T12:22:22.791Z,29.57
2023-01-19T12:25:01.980Z,29.03
2023-01-19T12:27:40.905Z,29.16
2023-01-19T12:30:23.542Z,29.79
2023-01-19T12:32:51.553Z,29.49
2023-01-19T12:36:06.729Z,29.60
2023-01-19T12:38:49.161Z,29.32
2023-01-19T12:41:30.750Z,28.90
2023-01-19T12:44:19.597Z,29.67
2023-01-19T12:46:50.429Z,29.61
2023-01-19T12:49:29.050Z,29.60
2023-01-19T12:52:12.101Z,29.86
2023-01-19T12:54:44.152Z,31.07
2023-01-19T12:57:23.211Z,31.60
2023-01-19T13:00:13.766Z,31.03
2023-01-19T13:02:42.621Z,30.77
2023-01-19T13:05:27.794Z,30.34
2023-01-19T13:08:07.246Z,29.86
2023-01-19T13:10:53.039Z,29.97
2023-01-19T13:13:32.410Z,29.92
2023-01-19T13:16:19.517Z,29.84
2023-01-19T13:18:53.721Z,29.37
2023-01-19T13:21:34.232Z,29.46
2023-01-19T13:24:04.912Z,29.11
2023-01-19T13:26:35.820Z,28.94
2023-01-19T13:29:10.993Z,29.32
2023-01-19T13:31:40.323Z,29.34
2023-01-19T13:34:25.516Z,29.91
2023-01-19T13:36:55.141Z,29.35
2023-01-19T13:39:34.118Z,28.48
2023-01-19T13:42:05.820Z,28.64
2023-01-19T13:44:39.492Z,28.46
2023-01-19T13:47:08.828Z,28.21
2023-01-19T13:49:44.983Z,28.08
2023-01-19T13:52:14.033Z,28.75
2023-01-19T13:55:13.301Z,28.38
2023-01-19T13:57:45.535Z,28.94
2023-01-19T14:00:25.733Z,28.91
2023-01-19T14:02:57.859Z,29.11
2023-01-19T14:05:34.392Z,29.27
2023-01-19T14:08:18.699Z,29.55
2023-01-19T14:10:49.717Z,29.50
2023-01-19T14:13:37.690Z,29.84
2023-01-19T14:16:16.825Z,30.34
2023-01-19T14:18:43.983Z,29.72
2023-01-19T14:21:16.498Z,29.99
2023-01-19T14:23:54.861Z,29.99
2023-01-19T14:26:46.794Z,29.93
2023-01-19T14:29:27.331Z,30.81
2023-01-19T14:32:00.352Z,30.66
2023-01-19T14:34:49.141Z,31.18
2023-01-19T14:37:32.528Z,31.28
2023-01-19T14:40:04.724Z,31.16
2023-01-19T14:42:43.736Z,31.49
2023-01-19T14:45:21.499Z,31.01
2023-01-19T14:48:00.004Z,31.54
2023-01-19T14:50:29.365Z,31.93
2023-01-19T14:53:01.234Z,31.97
2023-01-19T14:55:49.769Z,31.54
2023-01-19T14:58:36.045Z,32.11
2023-01-19T15:01:04.203Z,31.81
2023-01-19T15:03:44.835Z,31.69
2023-01-19T15:06:21.816Z,31.61
2023-01-19T15:08:50.527Z,31.48
2023-01-19T15:11:33.427Z,31.64
2023-01-19T15:14:03.305Z,31.77
2023-01-19T15:16:32.591Z,31.70
2023-01-19T15:18:59.684Z,31.85
2023-01-19T15:21:26.958Z,32.43
2023-01-19T15:23:58.637Z,32.41
2023-01-19T15:26:26.711Z,32.88
2023-01-19T15:28:54.120Z,32.52
2023-01-19T15:31:26.567Z,32.70
2023-01-19T15:33:53.790Z,32.88
2023-01-19T15:36:22.206Z,33.17
2023-01-19T15:38:51.258Z,32.90
2023-01-19T15:41:27.034Z,32.99
2023-01-19T15:43:54.166Z,32.78
2023-01-19T15:46:25.337Z,32.96
2023-01-19T15:48:52.980Z,32.99
2023-01-19T15:51:21.886Z,33.58
2023-01-19T15:53:49.355Z,33.31
2023-01-19T15:56:22.131Z,34.16
2023-01-19T15:58:49.661Z,34.12
2023-01-19T16:01:21.625Z,34.41
2023-01-19T16:03:49.223Z,35.84
2023-01-19T16:06:19.337Z,36.03
2023-01-19T16:08:49.363Z,36.06
2023-01-19T16:11:23.867Z,36.33
2023-01-19T16:13:57.036Z,37.94
2023-01-19T16:16:28.448Z,41.74
2023-01-19T16:19:09.536Z,46.31
2023-01-19T16:21:37.337Z,48.97
2023-01-19T16:24:04.515Z,50.05
2023-01-19T16:26:34.561Z,52.50
2023-01-19T16:29:07.992Z,54.39
2023-01-19T16:31:35.363Z,57.68
2023-01-19T16:34:02.474Z,58.70
2023-01-19T16:36:31.451Z,58.72
2023-01-19T16:38:59.898Z,60.62
2023-01-19T16:41:26.912Z,61.37
2023-01-19T16:43:54.554Z,63.05
2023-01-19T16:46:26.926Z,61.29
2023-01-19T16:48:54.052Z,61.32
2023-01-19T16:51:20.917Z,62.98
2023-01-19T16:53:49.713Z,61.79
2023-01-19T16:56:17.375Z,63.05
2023-01-19T16:58:44.272Z,64.03
2023-01-19T17:01:20.546Z,64.40
2023-01-19T17:03:47.857Z,66.76
2023-01-19T17:06:18.296Z,64.72
2023-01-19T17:08:45.145Z,65.73
2023-01-19T17:11:20.980Z,66.67
2023-01-19T17:13:48.956Z,64.02
2023-01-19T17:16:16.030Z,65.34
2023-01-19T17:18:42.991Z,64.76
2023-01-19T17:21:10.745Z,65.96
2023-01-19T17:23:42.518Z,64.88
2023-01-19T17:26:09.451Z,65.78
2023-01-19T17:28:36.528Z,64.43
2023-01-19T17:31:07.823Z,66.00
2023-01-19T17:33:35.032Z,66.83
2023-01-19T17:36:03.825Z,66.33
2023-01-19T17:38:30.619Z,67.28
2023-01-19T17:40:57.538Z,65.40
2023-01-19T17:43:24.367Z,62.51
2023-01-19T17:45:51.293Z,64.17
2023-01-19T17:48:18.337Z,64.49
2023-01-19T17:50:45.517Z,64.33
2023-01-19T17:53:12.373Z,63.20
2023-01-19T17:55:39.277Z,62.98
2023-01-19T17:58:07.074Z,65.28
2023-01-19T18:00:34.451Z,65.73
2023-01-19T18:03:01.406Z,67.23
2023-01-19T18:05:28.206Z,67.72
2023-01-19T18:07:55.055Z,67.59
2023-01-19T18:10:22.217Z,68.63
2023-01-19T18:12:49.225Z,68.92
2023-01-19T18:15:17.016Z,70.09
2023-01-19T18:17:43.953Z,71.80
2023-01-19T18:20:11.593Z,72.81
2023-01-19T18:22:38.634Z,73.46
2023-01-19T18:25:05.702Z,74.05
2023-01-19T18:27:32.596Z,75.46
2023-01-19T18:29:59.335Z,72.63
2023-01-19T18:32:27.264Z,72.39
2023-01-19T18:34:54.307Z,74.25
2023-01-19T18:37:21.252Z,75.36
2023-01-19T18:39:50.544Z,74.85
2023-01-19T18:42:17.404Z,76.18
2023-01-19T18:44:44.256Z,75.83
2023-01-19T18:47:11.122Z,76.89
2023-01-19T18:49:37.971Z,76.99
2023-01-19T18:52:05.049Z,78.32
2023-01-19T18:54:32.057Z,77.72
2023-01-19T18:56:58.896Z,78.11
2023-01-19T18:59:25.746Z,76.59
2023-01-19T19:01:53.787Z,76.49
2023-01-19T19:04:20.795Z,76.97
2023-01-19T19:06:47.975Z,77.91
2023-01-19T19:09:14.919Z,77.60
2023-01-19T19:11:41.883Z,78.09
2023-01-19T19:14:09.518Z,78.24
2023-01-19T19:16:38.572Z,77.83
2023-01-19T19:19:07.268Z,79.01
2023-01-19T19:21:34.194Z,79.50
2023-01-19T19:24:00.999Z,79.20
2023-01-19T19:26:28.464Z,78.83
2023-01-19T19:28:55.452Z,78.05
2023-01-19T19:31:23.618Z,78.03
2023-01-19T19:33:51.360Z,72.75
2023-01-19T19:36:20.153Z,72.44
2023-01-19T19:38:48.024Z,73.06
2023-01-19T19:41:17.794Z,75.11
2023-01-19T19:43:44.797Z,76.43
2023-01-19T19:46:13.200Z,75.77
2023-01-19T19:48:40.197Z,75.31
2023-01-19T19:51:17.539Z,79.00
2023-01-19T19:53:46.108Z,78.14
2023-01-19T19:56:13.756Z,78.70
2023-01-19T19:58:42.076Z,79.01
2023-01-19T20:01:10.964Z,78.41
2023-01-19T20:03:37.885Z,79.47
2023-01-19T20:06:12.866Z,78.92
2023-01-19T20:08:39.758Z,78.08
2023-01-19T20:11:19.114Z,79.48
2023-01-19T20:13:47.768Z,78.75
2023-01-19T20:16:15.489Z,79.67
2023-01-19T20:18:43.901Z,79.71
2023-01-19T20:21:19.364Z,79.34
2023-01-19T20:23:47.678Z,78.41
2023-01-19T20:26:16.581Z,80.54
2023-01-19T20:28:43.389Z,79.85
2023-01-19T20:31:25.017Z,79.96
2023-01-19T20:33:52.540Z,80.12
2023-01-19T20:36:21.203Z,80.31
2023-01-19T20:38:47.955Z,80.36
2023-01-19T20:41:14.722Z,80.22
2023-01-19T20:43:41.536Z,79.37
2023-01-19T20:46:08.973Z,79.32
2023-01-19T20:48:36.209Z,79.38
2023-01-19T20:51:06.886Z,79.75
2023-01-19T20:53:34.353Z,80.16
2023-01-19T20:56:11.638Z,80.49
2023-01-19T20:58:40.921Z,80.28
2023-01-19T21:01:15.043Z,81.03
2023-01-19T21:03:42.570Z,81.23
2023-01-19T21:06:10.418Z,80.99
2023-01-19T21:08:37.761Z,80.59
2023-01-19T21:11:05.401Z,81.12
2023-01-19T21:13:32.443Z,81.42
2023-01-19T21:15:59.792Z,80.83
2023-01-19T21:18:28.023Z,80.25
2023-01-19T21:20:55.620Z,80.53
2023-01-19T21:23:22.458Z,80.18
2023-01-19T21:25:53.797Z,78.08
2023-01-19T21:28:22.725Z,79.97
2023-01-19T21:30:50.606Z,80.39
2023-01-19T21:33:18.053Z,79.94
2023-01-19T21:35:51.169Z,80.08
2023-01-19T21:38:18.185Z,80.38
2023-01-19T21:40:45.203Z,80.75
2023-01-19T21:43:13.554Z,80.99
2023-01-19T21:46:15.045Z,81.58
2023-01-19T21:48:42.569Z,81.33
2023-01-19T21:51:10.101Z,81.57
2023-01-19T21:53:37.204Z,81.20
2023-01-19T21:56:07.296Z,81.92
2023-01-19T21:58:34.083Z,82.38
2023-01-19T22:01:03.613Z,82.07
2023-01-19T22:03:30.738Z,83.10
2023-01-19T22:06:04.084Z,83.37
2023-01-19T22:08:30.894Z,82.71
2023-01-19T22:11:05.031Z,83.68
2023-01-19T22:13:33.535Z,84.03
2023-01-19T22:16:04.004Z,84.49
2023-01-19T22:18:31.038Z,85.09
2023-01-19T22:21:27.088Z,85.04
2023-01-19T22:23:55.759Z,85.55
2023-01-19T22:26:22.770Z,85.30
2023-01-19T22:28:53.588Z,85.07
2023-01-19T22:31:20.455Z,84.47
2023-01-19T22:33:51.600Z,84.75
2023-01-19T22:36:24.439Z,84.54
2023-01-19T22:38:56.125Z,84.69
2023-01-19T22:41:28.474Z,84.62
2023-01-19T22:43:57.253Z,83.96
2023-01-19T22:46:27.664Z,84.46
2023-01-19T22:48:55.533Z,83.98
2023-01-19T22:51:23.937Z,83.54
2023-01-19T22:53:51.304Z,83.17
2023-01-19T22:56:20.772Z,83.05
2023-01-19T22:58:48.389Z,82.73
2023-01-19T23:01:17.996Z,82.45
2023-01-19T23:03:46.527Z,82.93
2023-01-19T23:06:16.348Z,82.95
2023-01-19T23:08:44.082Z,83.36
2023-01-19T23:11:16.639Z,83.65
2023-01-19T23:13:43.706Z,83.26
2023-01-19T23:16:11.915Z,83.02
2023-01-19T23:18:42.080Z,83.26
2023-01-19T23:21:14.425Z,83.13
2023-01-19T23:23:41.913Z,83.34
2023-01-19T23:26:11.629Z,82.59
2023-01-19T23:28:39.299Z,82.10
2023-01-19T23:31:23.854Z,82.15
2023-01-19T23:33:53.232Z,81.45
2023-01-19T23:36:21.158Z,81.36
2023-01-19T23:38:49.856Z,81.12
2023-01-19T23:41:16.856Z,81.58
2023-01-19T23:43:44.319Z,82.79
2023-01-19T23:46:11.690Z,77.69
2023-01-19T23:48:38.548Z,78.26
2023-01-19T23:51:23.544Z,77.92
2023-01-19T23:53:50.674Z,79.31
2023-01-19T23:56:21.434Z,78.75
2023-01-19T23:58:54.563Z,80.03
